Macao Strait — CQFJ — position and weather

sailwx.info

Track history (hours):
 
Tides and Currents Weather Stations Pressure Air Temp Water Temp Dewpoint Dewpoint Depression Visibility Wind Speed Wind Dir Waves Ship Positions

Macao Strait

Last reported at 2018-Jun-22 02:59 UTC. Time now 2018-Jun-22 03:22 UTC.
Position N 44°24' E 008°55'.

Length 180 m; draft 7.3 m.

Type: Ship (hazmat cat A). MMSI: 255805611.

Date/timePositionNaut miles runAvg speedWind from/ knotsBaromVisibWave heightAir tempDewpointWater temp
2018-Jun-22 02:59N 44°24' E 008°55'0 0.0
2018-Jun-22 02:29N 44°24' E 008°55'0 0.0
2018-Jun-22 01:59N 44°24' E 008°55'0 0.0
2018-Jun-22 01:29N 44°24' E 008°55'0 0.0
2018-Jun-22 00:59N 44°24' E 008°55'0 0.0
2018-Jun-22 00:29N 44°24' E 008°55'0 0.0
2018-Jun-21 23:59N 44°24' E 008°55'0 0.0
2018-Jun-21 23:29N 44°24' E 008°55'0 0.0
2018-Jun-21 22:59N 44°24' E 008°55'0 0.0
2018-Jun-21 22:29N 44°24' E 008°55'0 0.0
2018-Jun-21 21:59N 44°24' E 008°55'0 0.0
2018-Jun-21 21:29N 44°24' E 008°55'0 0.0
2018-Jun-21 20:59N 44°24' E 008°55'0 0.0
2018-Jun-21 20:29N 44°24' E 008°55'0 0.0
2018-Jun-21 19:59N 44°24' E 008°55'0 0.0
2018-Jun-21 19:29N 44°24' E 008°55'0 0.0
2018-Jun-21 18:59N 44°24' E 008°55'0 0.0
2018-Jun-21 18:29N 44°24' E 008°55'0 0.0
2018-Jun-21 17:59N 44°24' E 008°55'0 0.0
2018-Jun-21 17:29N 44°24' E 008°55'0 0.0
2018-Jun-21 16:59N 44°24' E 008°55'0 0.0
2018-Jun-21 16:29N 44°24' E 008°55'0 0.0
2018-Jun-21 15:59N 44°24' E 008°55'0 0.0
2018-Jun-21 15:29N 44°24' E 008°55'0 0.0
2018-Jun-21 14:59N 44°24' E 008°55'0 0.0
2018-Jun-21 14:29N 44°24' E 008°55'0 0.0
2018-Jun-21 14:00N 44°24' E 008°55'1 2.7
2018-Jun-21 13:30N 44°23' E 008°56'3 5.9
2018-Jun-21 13:00N 44°22' E 008°60'2 3.3
2018-Jun-21 12:31N 44°21' E 009°01'1 1.5
2018-Jun-21 12:00N 44°20' E 008°60'0 0.7
2018-Jun-21 11:30N 44°20' E 008°60'1 1.6
2018-Jun-21 11:00N 44°19' E 008°60'3 5.7
2018-Jun-21 10:30N 44°18' E 008°56'3 6.8
2018-Jun-21 10:00N 44°16' E 008°52'3 6.8
2018-Jun-21 09:30N 44°15' E 008°48'0 0.9
2018-Jun-21 09:00N 44°14' E 008°47'0 0.3
2018-Jun-21 08:30N 44°14' E 008°48'0 0.4
2018-Jun-21 08:00N 44°14' E 008°48'0 0.4
2018-Jun-21 07:30N 44°14' E 008°48'0 0.3
2018-Jun-21 07:00N 44°14' E 008°48'0 0.3
2018-Jun-21 06:30N 44°14' E 008°48'0 0.3
2018-Jun-21 06:00N 44°13' E 008°48'0 0.3
2018-Jun-21 05:30N 44°13' E 008°49'0 0.4
2018-Jun-21 04:59N 44°13' E 008°49'0 0.4
2018-Jun-21 04:30N 44°13' E 008°49'0 0.3
2018-Jun-21 04:00N 44°13' E 008°49'0 0.2
2018-Jun-21 03:30N 44°13' E 008°50'0 0.2
2018-Jun-21 03:00N 44°13' E 008°49'3 5.3
2018-Jun-21 02:31N 44°12' E 008°47'714.5
2018-Jun-21 02:00N 44°07' E 008°39'714.5
2018-Jun-21 01:30N 44°02' E 008°32'714.5
2018-Jun-21 01:00N 43°57' E 008°24'714.3
2018-Jun-21 00:30N 43°52' E 008°17'714.2
2018-Jun-21 00:00N 43°48' E 008°09'714.0
2018-Jun-20 23:30N 43°43' E 008°02'714.1
2018-Jun-20 23:00N 43°38' E 007°55'714.3
2018-Jun-20 22:30N 43°33' E 007°48'814.2
2018-Jun-20 21:58N 43°27' E 007°41'714.5
2018-Jun-20 21:30N 43°22' E 007°36'914.6
2018-Jun-20 20:55N 43°14' E 007°30'1614.5
2018-Jun-20 19:47N 43°01' E 007°18'11814.5
2018-Jun-20 11:39N 41°48' E 005°12'7414.9
2018-Jun-20 06:41N 40°59' E 003°57'414.9
2018-Jun-20 06:27N 40°57' E 003°54'3615.1
2018-Jun-20 04:06N 40°33' E 003°19'114.9
2018-Jun-20 04:00N 40°32' E 003°17'1214.6
2018-Jun-20 03:12N 40°24' E 003°06'515.0
2018-Jun-20 02:53N 40°21' E 003°01'614.9
2018-Jun-20 02:29N 40°17' E 002°55'1315.0
2018-Jun-20 01:37N 40°09' E 002°43'215.1
2018-Jun-20 01:30N 40°08' E 002°41'19214.9
2018-Jun-19 12:34N 37°50' W 000°12'414.7
2018-Jun-19 12:19N 37°47' W 000°15'514.7
2018-Jun-19 12:00N 37°44' W 000°19'714.4
2018-Jun-19 11:30N 37°38' W 000°25'714.4
2018-Jun-19 11:00N 37°33' W 000°31'714.6
2018-Jun-19 10:30N 37°28' W 000°38'714.4
2018-Jun-19 10:00N 37°23' W 000°44'714.2
2018-Jun-19 09:30N 37°18' W 000°51'714.2
2018-Jun-19 08:59N 37°14' W 000°58'714.5
2018-Jun-19 08:29N 37°09' W 001°05'714.9
2018-Jun-19 08:00N 37°04' W 001°11'20414.7
2018-Jun-18 18:05N 36°00' W 005°13'116.0
2018-Jun-18 18:00N 35°60' W 005°15'816.1
2018-Jun-18 17:30N 35°58' W 005°24'19715.7
2018-Jun-18 04:56N 35°28' W 009°24'818.7
2018-Jun-18 04:30N 35°26' W 009°34'52717.2
2018-Jun-16 21:58N 34°00' W 020°06'1717.7
2018-Jun-16 21:02N 33°58' W 020°25'118.4
2018-Jun-16 20:59N 33°57' W 020°26'817.7
2018-Jun-16 20:31N 33°56' W 020°36'1017.9
2018-Jun-16 19:57N 33°54' W 020°48'  
Track history (hours):
 
Tides and Currents Weather Stations Pressure Air Temp Water Temp Dewpoint Dewpoint Depression Visibility Wind Speed Wind Dir Waves Ship Positions

Macao Strait

Last reported at 2018-Jun-22 02:59 UTC. Time now 2018-Jun-22 03:22 UTC.
Position N 44°24' E 008°55'.

Length 180 m; draft 7.3 m.

Type: Ship (hazmat cat A). MMSI: 255805611.

Date/timePositionNaut miles runAvg speedWind from/ knotsBaromVisibWave heightAir tempDewpointWater temp
2018-Jun-22 02:59N 44°24' E 008°55'0 0.0
2018-Jun-22 02:29N 44°24' E 008°55'0 0.0
2018-Jun-22 01:59N 44°24' E 008°55'0 0.0
2018-Jun-22 01:29N 44°24' E 008°55'0 0.0
2018-Jun-22 00:59N 44°24' E 008°55'0 0.0
2018-Jun-22 00:29N 44°24' E 008°55'0 0.0
2018-Jun-21 23:59N 44°24' E 008°55'0 0.0
2018-Jun-21 23:29N 44°24' E 008°55'0 0.0
2018-Jun-21 22:59N 44°24' E 008°55'0 0.0
2018-Jun-21 22:29N 44°24' E 008°55'0 0.0
2018-Jun-21 21:59N 44°24' E 008°55'0 0.0
2018-Jun-21 21:29N 44°24' E 008°55'0 0.0
2018-Jun-21 20:59N 44°24' E 008°55'0 0.0
2018-Jun-21 20:29N 44°24' E 008°55'0 0.0
2018-Jun-21 19:59N 44°24' E 008°55'0 0.0
2018-Jun-21 19:29N 44°24' E 008°55'0 0.0
2018-Jun-21 18:59N 44°24' E 008°55'0 0.0
2018-Jun-21 18:29N 44°24' E 008°55'0 0.0
2018-Jun-21 17:59N 44°24' E 008°55'0 0.0
2018-Jun-21 17:29N 44°24' E 008°55'0 0.0
2018-Jun-21 16:59N 44°24' E 008°55'0 0.0
2018-Jun-21 16:29N 44°24' E 008°55'0 0.0
2018-Jun-21 15:59N 44°24' E 008°55'0 0.0
2018-Jun-21 15:29N 44°24' E 008°55'0 0.0
2018-Jun-21 14:59N 44°24' E 008°55'0 0.0
2018-Jun-21 14:29N 44°24' E 008°55'0 0.0
2018-Jun-21 14:00N 44°24' E 008°55'1 2.7
2018-Jun-21 13:30N 44°23' E 008°56'3 5.9
2018-Jun-21 13:00N 44°22' E 008°60'2 3.3
2018-Jun-21 12:31N 44°21' E 009°01'1 1.5
2018-Jun-21 12:00N 44°20' E 008°60'0 0.7
2018-Jun-21 11:30N 44°20' E 008°60'1 1.6
2018-Jun-21 11:00N 44°19' E 008°60'3 5.7
2018-Jun-21 10:30N 44°18' E 008°56'3 6.8
2018-Jun-21 10:00N 44°16' E 008°52'3 6.8
2018-Jun-21 09:30N 44°15' E 008°48'0 0.9
2018-Jun-21 09:00N 44°14' E 008°47'0 0.3
2018-Jun-21 08:30N 44°14' E 008°48'0 0.4
2018-Jun-21 08:00N 44°14' E 008°48'0 0.4
2018-Jun-21 07:30N 44°14' E 008°48'0 0.3
2018-Jun-21 07:00N 44°14' E 008°48'0 0.3
2018-Jun-21 06:30N 44°14' E 008°48'0 0.3
2018-Jun-21 06:00N 44°13' E 008°48'0 0.3
2018-Jun-21 05:30N 44°13' E 008°49'0 0.4
2018-Jun-21 04:59N 44°13' E 008°49'0 0.4
2018-Jun-21 04:30N 44°13' E 008°49'0 0.3
2018-Jun-21 04:00N 44°13' E 008°49'0 0.2
2018-Jun-21 03:30N 44°13' E 008°50'0 0.2
2018-Jun-21 03:00N 44°13' E 008°49'3 5.3
2018-Jun-21 02:31N 44°12' E 008°47'714.5
2018-Jun-21 02:00N 44°07' E 008°39'714.5
2018-Jun-21 01:30N 44°02' E 008°32'714.5
2018-Jun-21 01:00N 43°57' E 008°24'714.3
2018-Jun-21 00:30N 43°52' E 008°17'714.2
2018-Jun-21 00:00N 43°48' E 008°09'714.0
2018-Jun-20 23:30N 43°43' E 008°02'714.1
2018-Jun-20 23:00N 43°38' E 007°55'714.3
2018-Jun-20 22:30N 43°33' E 007°48'814.2
2018-Jun-20 21:58N 43°27' E 007°41'714.5
2018-Jun-20 21:30N 43°22' E 007°36'914.6
2018-Jun-20 20:55N 43°14' E 007°30'1614.5
2018-Jun-20 19:47N 43°01' E 007°18'11814.5
2018-Jun-20 11:39N 41°48' E 005°12'7414.9
2018-Jun-20 06:41N 40°59' E 003°57'414.9
2018-Jun-20 06:27N 40°57' E 003°54'3615.1
2018-Jun-20 04:06N 40°33' E 003°19'114.9
2018-Jun-20 04:00N 40°32' E 003°17'1214.6
2018-Jun-20 03:12N 40°24' E 003°06'515.0
2018-Jun-20 02:53N 40°21' E 003°01'614.9
2018-Jun-20 02:29N 40°17' E 002°55'1315.0
2018-Jun-20 01:37N 40°09' E 002°43'215.1
2018-Jun-20 01:30N 40°08' E 002°41'19214.9
2018-Jun-19 12:34N 37°50' W 000°12'414.7
2018-Jun-19 12:19N 37°47' W 000°15'514.7
2018-Jun-19 12:00N 37°44' W 000°19'714.4
2018-Jun-19 11:30N 37°38' W 000°25'714.4
2018-Jun-19 11:00N 37°33' W 000°31'714.6
2018-Jun-19 10:30N 37°28' W 000°38'714.4
2018-Jun-19 10:00N 37°23' W 000°44'714.2
2018-Jun-19 09:30N 37°18' W 000°51'714.2
2018-Jun-19 08:59N 37°14' W 000°58'714.5
2018-Jun-19 08:29N 37°09' W 001°05'714.9
2018-Jun-19 08:00N 37°04' W 001°11'20414.7
2018-Jun-18 18:05N 36°00' W 005°13'116.0
2018-Jun-18 18:00N 35°60' W 005°15'816.1
2018-Jun-18 17:30N 35°58' W 005°24'19715.7
2018-Jun-18 04:56N 35°28' W 009°24'818.7
2018-Jun-18 04:30N 35°26' W 009°34'52717.2
2018-Jun-16 21:58N 34°00' W 020°06'1717.7
2018-Jun-16 21:02N 33°58' W 020°25'118.4
2018-Jun-16 20:59N 33°57' W 020°26'817.7
2018-Jun-16 20:31N 33°56' W 020°36'1017.9
2018-Jun-16 19:57N 33°54' W 020°48'  

Dump ship's entire track history